Terminal Aerodrome Forecast
Issued by NWS King Salmon, AK

Home | Current Version | Previous Version | Text Only | Print | Product List | Glossary On
Versions: 1 2 3 4 5 6 7 8 9 10 11 12 13 14 15 16 17 18 19 20 21 22 23 24 25 26 27 28 29 30 31 32 33 34 35 36 37 38 39 40 41 42
000
FTAK31 PANC 020257 AAA
TAFAKN
TAF AMD
PAKN 020257Z 0203/0224 01017KT P6SM VCSH BKN050
     FM020400 34012KT P6SM FEW050 BKN150
     FM021200 36008KT P6SM BKN012 BKN100
     FM022000 34009KT P6SM SCT020 SCT100=

USA.gov is the U.S. government's official web portal to all federal, state and local government web resources and services.